createdAt,value
2022-12-26T00:02:30.711Z,2.90
2022-12-26T00:07:52.920Z,2.80
2022-12-26T00:13:39.836Z,2.80
2022-12-26T00:18:57.593Z,2.80
2022-12-26T00:24:19.790Z,2.50
2022-12-26T00:29:41.977Z,2.20
2022-12-26T00:35:04.417Z,2.00
2022-12-26T00:40:26.643Z,1.90
2022-12-26T00:45:49.107Z,2.10
2022-12-26T00:51:11.567Z,2.10
2022-12-26T00:56:33.781Z,2.10
2022-12-26T01:01:56.140Z,2.00
2022-12-26T01:07:18.504Z,1.90
2022-12-26T01:12:40.697Z,1.80
2022-12-26T01:18:03.277Z,1.90
2022-12-26T01:23:25.828Z,2.00
2022-12-26T01:28:52.907Z,2.00
2022-12-26T01:34:15.081Z,2.10
2022-12-26T01:39:37.256Z,2.20
2022-12-26T01:45:04.613Z,2.20
2022-12-26T01:50:29.536Z,2.40
2022-12-26T01:56:00.737Z,2.50
2022-12-26T02:01:29.111Z,2.40
2022-12-26T02:06:51.857Z,2.50
2022-12-26T02:12:35.861Z,2.60
2022-12-26T02:18:00.216Z,2.50
2022-12-26T02:23:43.938Z,2.70
2022-12-26T02:29:27.859Z,2.70
2022-12-26T02:35:06.724Z,2.60
2022-12-26T02:40:34.691Z,2.50
2022-12-26T02:46:48.539Z,2.70
2022-12-26T02:52:39.347Z,2.80
2022-12-26T02:58:40.585Z,2.70
2022-12-26T03:04:23.966Z,2.60
2022-12-26T03:10:07.157Z,2.70
2022-12-26T03:15:51.483Z,2.60
2022-12-26T03:21:17.350Z,2.60
2022-12-26T03:26:47.683Z,2.60
2022-12-26T03:32:12.465Z,2.60
2022-12-26T03:37:54.591Z,2.60
2022-12-26T03:44:16.214Z,2.50
2022-12-26T03:50:04.757Z,2.30
2022-12-26T03:56:10.954Z,2.10
2022-12-26T04:01:56.016Z,1.90
2022-12-26T04:07:55.608Z,1.80
2022-12-26T04:13:43.307Z,1.90
2022-12-26T04:19:30.685Z,1.90
2022-12-26T04:25:49.800Z,2.00
2022-12-26T04:31:40.233Z,2.00
2022-12-26T04:37:23.430Z,1.90
2022-12-26T04:43:46.618Z,1.90
2022-12-26T04:49:08.470Z,1.90
2022-12-26T04:54:30.689Z,1.80
2022-12-26T04:59:52.861Z,1.90
2022-12-26T05:05:33.517Z,2.00
2022-12-26T05:10:55.689Z,1.90
2022-12-26T05:16:36.636Z,2.00
2022-12-26T05:22:18.209Z,2.10
2022-12-26T05:28:02.038Z,2.10
2022-12-26T05:33:42.823Z,1.90
2022-12-26T05:39:06.481Z,2.00
2022-12-26T05:44:28.554Z,1.80
2022-12-26T05:49:50.752Z,1.80
2022-12-26T05:55:12.955Z,1.70
2022-12-26T06:00:35.177Z,1.70
2022-12-26T06:05:57.735Z,1.80
2022-12-26T06:11:20.761Z,1.90
2022-12-26T06:16:43.002Z,2.00
2022-12-26T06:22:05.272Z,2.40
2022-12-26T06:27:27.628Z,2.90
2022-12-26T06:32:49.792Z,2.90
2022-12-26T06:38:12.488Z,2.90
2022-12-26T06:43:35.060Z,2.90
2022-12-26T06:48:57.242Z,2.30
2022-12-26T06:54:19.517Z,2.30
2022-12-26T06:59:41.696Z,2.60
2022-12-26T07:05:04.175Z,2.00
2022-12-26T07:10:26.323Z,2.10
2022-12-26T07:15:48.553Z,2.10
2022-12-26T07:21:13.534Z,2.30
2022-12-26T07:26:35.745Z,2.60
2022-12-26T07:31:59.045Z,3.10
2022-12-26T07:37:21.332Z,3.80
2022-12-26T07:42:43.515Z,3.80
2022-12-26T07:48:05.923Z,4.10
2022-12-26T07:53:28.081Z,4.20
2022-12-26T07:58:51.432Z,4.50
2022-12-26T08:04:14.195Z,4.40
2022-12-26T08:09:36.669Z,4.30
2022-12-26T08:14:58.909Z,4.80
2022-12-26T08:20:22.705Z,5.00
2022-12-26T08:25:44.980Z,4.90
2022-12-26T08:31:08.688Z,5.30
2022-12-26T08:36:30.921Z,5.60
2022-12-26T08:41:53.183Z,4.90
2022-12-26T08:47:15.836Z,4.80
2022-12-26T08:52:38.098Z,5.00
2022-12-26T08:58:03.188Z,5.00
2022-12-26T09:03:25.560Z,5.00
2022-12-26T09:08:48.279Z,5.10
2022-12-26T09:14:11.531Z,5.30
2022-12-26T09:19:33.841Z,5.90
2022-12-26T09:24:56.075Z,6.40
2022-12-26T09:30:18.445Z,7.10
2022-12-26T09:35:41.732Z,7.30
2022-12-26T09:41:25.989Z,7.60
2022-12-26T09:47:09.374Z,8.00
2022-12-26T09:52:50.708Z,8.20
2022-12-26T09:58:18.690Z,8.30
2022-12-26T10:03:53.666Z,8.00
2022-12-26T10:09:31.927Z,8.10
2022-12-26T10:14:56.883Z,8.40
2022-12-26T10:20:39.994Z,8.40
2022-12-26T10:26:20.201Z,8.50
2022-12-26T10:31:59.794Z,8.70
2022-12-26T10:37:42.070Z,9.00
2022-12-26T10:43:28.675Z,9.20
2022-12-26T10:48:50.912Z,9.60
2022-12-26T10:54:18.489Z,9.70
2022-12-26T10:59:49.735Z,9.90
2022-12-26T11:05:33.170Z,10.10
2022-12-26T11:11:08.997Z,10.20
2022-12-26T11:16:36.537Z,10.60
2022-12-26T11:22:28.950Z,10.90
2022-12-26T11:27:57.854Z,11.20
2022-12-26T11:33:24.562Z,11.80
2022-12-26T11:38:57.499Z,12.30
2022-12-26T11:44:22.089Z,12.10
2022-12-26T11:50:04.657Z,11.70
2022-12-26T11:55:34.369Z,11.50
2022-12-26T12:00:59.580Z,11.40
2022-12-26T12:06:49.379Z,11.20
2022-12-26T12:12:56.236Z,11.20
2022-12-26T12:18:43.683Z,11.40
2022-12-26T12:24:31.334Z,11.60
2022-12-26T12:30:20.048Z,11.70
2022-12-26T12:36:08.532Z,11.40
2022-12-26T12:41:36.429Z,12.10
2022-12-26T12:47:14.032Z,13.40
2022-12-26T12:52:58.161Z,13.20
2022-12-26T12:58:31.474Z,11.90
2022-12-26T13:04:10.639Z,11.70
2022-12-26T13:09:43.964Z,11.30
2022-12-26T13:15:15.455Z,11.20
2022-12-26T13:20:40.675Z,10.80
2022-12-26T13:26:14.637Z,10.90
2022-12-26T13:31:38.598Z,11.40
2022-12-26T13:37:01.218Z,12.20
2022-12-26T13:43:07.303Z,12.10
2022-12-26T13:48:32.842Z,11.40
2022-12-26T13:54:02.674Z,11.20
2022-12-26T13:59:50.990Z,11.20
2022-12-26T14:05:48.510Z,10.90
2022-12-26T14:11:27.592Z,10.70
2022-12-26T14:17:02.947Z,10.50
2022-12-26T14:22:43.217Z,10.40
2022-12-26T14:28:50.347Z,10.20
2022-12-26T14:34:59.344Z,10.10
2022-12-26T14:40:36.852Z,9.90
2022-12-26T14:46:00.096Z,10.00
2022-12-26T14:51:30.415Z,10.20
2022-12-26T14:56:53.216Z,10.30
2022-12-26T15:02:19.094Z,10.30
2022-12-26T15:07:57.956Z,10.10
2022-12-26T15:13:37.075Z,10.10
2022-12-26T15:19:14.422Z,10.20
2022-12-26T15:25:19.327Z,10.00
2022-12-26T15:31:09.524Z,9.90
2022-12-26T15:37:02.509Z,9.70
2022-12-26T15:43:09.709Z,9.50
2022-12-26T15:48:53.577Z,9.50
2022-12-26T15:54:28.020Z,9.30
2022-12-26T16:00:02.940Z,9.60
2022-12-26T16:05:50.335Z,9.70
2022-12-26T16:11:25.566Z,9.80
2022-12-26T16:16:49.018Z,9.90
2022-12-26T16:22:46.370Z,10.00
2022-12-26T16:28:12.359Z,9.90
2022-12-26T16:33:43.049Z,9.70
2022-12-26T16:39:09.836Z,9.50
2022-12-26T16:44:37.633Z,9.50
2022-12-26T16:50:00.351Z,9.50
2022-12-26T16:55:35.610Z,9.50
2022-12-26T17:01:10.671Z,9.40
2022-12-26T17:06:38.837Z,9.30
2022-12-26T17:12:05.388Z,9.30
2022-12-26T17:17:35.339Z,9.10
2022-12-26T17:22:58.131Z,8.90
2022-12-26T17:28:20.292Z,8.80
2022-12-26T17:33:47.706Z,8.70
2022-12-26T17:39:23.361Z,8.80
2022-12-26T17:44:46.648Z,8.80
2022-12-26T17:50:08.973Z,8.80
2022-12-26T17:55:31.427Z,8.70
2022-12-26T18:00:53.785Z,8.60
2022-12-26T18:06:17.246Z,8.60
2022-12-26T18:11:39.787Z,8.60
2022-12-26T18:17:02.919Z,8.50
2022-12-26T18:22:26.495Z,8.50
2022-12-26T18:27:51.220Z,8.50
2022-12-26T18:33:13.719Z,8.50
2022-12-26T18:38:35.926Z,8.50
2022-12-26T18:43:58.237Z,8.40
2022-12-26T18:49:23.115Z,8.50
2022-12-26T18:54:45.739Z,8.50
2022-12-26T19:00:11.175Z,8.50
2022-12-26T19:05:34.340Z,8.50
2022-12-26T19:10:56.733Z,8.60
2022-12-26T19:16:19.285Z,8.50
2022-12-26T19:21:42.824Z,8.50
2022-12-26T19:27:05.517Z,8.50
2022-12-26T19:32:31.569Z,8.40
2022-12-26T19:37:53.755Z,8.40
2022-12-26T19:43:20.986Z,8.30
2022-12-26T19:48:44.094Z,8.40
2022-12-26T19:54:07.016Z,8.40
2022-12-26T19:59:29.922Z,8.50
2022-12-26T20:04:52.975Z,8.60
2022-12-26T20:10:16.571Z,8.60
2022-12-26T20:15:39.961Z,8.70
2022-12-26T20:21:07.748Z,8.60
2022-12-26T20:26:32.371Z,8.50
2022-12-26T20:31:59.517Z,8.50
2022-12-26T20:37:26.064Z,8.50
2022-12-26T20:42:49.434Z,8.50
2022-12-26T20:48:12.711Z,8.40
2022-12-26T20:53:37.755Z,8.40
2022-12-26T20:59:00.932Z,8.30
2022-12-26T21:04:24.078Z,8.40
2022-12-26T21:09:47.751Z,8.30
2022-12-26T21:15:12.603Z,8.40
2022-12-26T21:20:38.607Z,8.40
2022-12-26T21:26:02.087Z,8.40
2022-12-26T21:31:29.513Z,8.30
2022-12-26T21:37:12.140Z,8.40
2022-12-26T21:42:35.414Z,8.30
2022-12-26T21:47:58.595Z,8.30
2022-12-26T21:53:24.928Z,8.20
2022-12-26T21:59:07.604Z,8.10
2022-12-26T22:04:31.158Z,8.10
2022-12-26T22:09:54.541Z,8.10
2022-12-26T22:15:36.588Z,8.00
2022-12-26T22:21:05.244Z,7.90
2022-12-26T22:26:29.222Z,8.00
2022-12-26T22:31:51.406Z,8.00
2022-12-26T22:37:13.612Z,8.00
2022-12-26T22:42:35.797Z,8.00
2022-12-26T22:47:57.973Z,8.00
2022-12-26T22:53:23.459Z,8.10
2022-12-26T22:58:45.607Z,8.00
2022-12-26T23:04:08.432Z,7.90
2022-12-26T23:09:30.856Z,7.80
2022-12-26T23:14:53.168Z,7.90
2022-12-26T23:20:34.181Z,8.00
2022-12-26T23:25:59.999Z,8.00
2022-12-26T23:31:22.284Z,7.90
2022-12-26T23:36:44.584Z,7.90
2022-12-26T23:42:06.787Z,8.00
2022-12-26T23:47:29.275Z,8.00
2022-12-26T23:52:51.502Z,8.10
2022-12-26T23:58:13.660Z,8.20
